Hawkins, Texas
Current Conditions -  °F | °C
As of 7:53 AM on Monday 24 Nov 2014 (Local Time) from KTYR Reporting Station
Clear Clear  
Wind Chill:   Ceiling: Unl
Heat Index:   Visibility: 10mi
Dew Point:   Wind: 3mph
Humidity: 74%   Direction: 270°W
Pressure: 29.99"   Gusts: NA
Location:  32.59°N, 95.2°W
Report Text: KTYR 241353Z 27003KT 10SM CLR 07/03 A2999 RMK AO2 SLP151 T00720028
Loading
Personal Weather Stations






























Interactive Weather Map New forecast layout! Learn more

10-Day Weather Forecast

Advertisements
Track Severe Weather on mobile